Time;durP1;ratioP1;P1;durP2;ratioP2;P2;SDS_P1;SDS_P2;PMS_P1;PMS_P2;Temp;Humidity;BMP_temperature;BMP_pressure;BME280_temperature;BME280_humidity;BME280_pressure;Samples;Min_cycle;Max_cycle;Signal;HPM_P1;HPM_P2
2022/03/05 00:01:15;;;;;;;5.82;2.70;;;22.20;38.20;;;;;;4956772;28;20047;-81
2022/03/05 00:03:41;;;;;;;8.57;3.05;;;22.30;38.20;;;;;;4955917;28;20051;-81
2022/03/05 00:06:06;;;;;;;6.63;2.63;;;22.20;38.20;;;;;;4956659;28;20058;-82
2022/03/05 00:08:35;;;;;;;7.85;3.00;;;22.90;38.60;;;;;;5019057;23;20063;-81
2022/03/05 00:11:00;;;;;;;6.78;2.35;;;22.20;38.20;;;;;;4975097;28;20137;-81
2022/03/05 00:13:27;;;;;;;5.63;2.47;;;22.20;38.30;;;;;;4975525;28;20498;-81
2022/03/05 00:15:53;;;;;;;5.63;2.17;;;22.20;38.30;;;;;;4975612;28;20054;-81
2022/03/05 00:18:19;;;;;;;6.53;2.70;;;22.20;38.30;;;;;;4975163;28;20051;-81
2022/03/05 00:20:46;;;;;;;5.72;2.45;;;22.20;38.30;;;;;;4975546;28;20055;-81
2022/03/05 00:23:18;;;;;;;6.80;2.25;;;22.20;38.30;;;;;;4975841;28;20098;-81
2022/03/05 00:25:44;;;;;;;;;;;23.50;38.90;;;;;;4957652;23;20141;-81
2022/03/05 00:28:10;;;;;;;5.95;2.35;;;22.30;38.40;;;;;;4971954;28;20456;-81
2022/03/05 00:30:45;;;;;;;5.72;2.35;;;22.20;38.30;;;;;;4955951;28;20086;-82
2022/03/05 00:33:11;;;;;;;5.75;2.30;;;22.20;38.30;;;;;;4955358;28;20251;-82
2022/03/05 00:36:00;;;;;;;6.00;2.40;;;22.20;38.30;;;;;;4973679;28;20175;-82
2022/03/05 00:38:28;;;;;;;6.10;2.20;;;22.10;38.30;;;;;;4955644;28;20051;-82
2022/03/05 00:40:59;;;;;;;4.70;2.25;;;22.20;38.30;;;;;;4955267;28;20062;-82
2022/03/05 00:43:44;;;;;;;3.97;2.20;;;23.10;38.90;;;;;;4955838;28;20055;-81
2022/03/05 00:47:05;;;;;;;4.72;2.10;;;22.00;38.40;;;;;;4955315;28;20552;-82
2022/03/05 00:49:50;;;;;;;6.40;2.20;;;22.30;38.30;;;;;;4955562;28;20054;-82
2022/03/05 00:52:34;;;;;;;5.82;2.15;;;22.20;38.30;;;;;;4955666;28;20042;-82
2022/03/05 00:55:09;;;;;;;4.63;1.88;;;22.20;38.50;;;;;;4938581;28;20150;-81
2022/03/05 01:06:43;;;;;;;5.47;2.10;;;22.20;38.50;;;;;;5069350;22;20073;-81
2022/03/05 01:09:08;;;;;;;;;;;22.10;38.30;;;;;;4975162;28;20046;-81
2022/03/05 01:12:21;;;;;;;4.95;2.08;;;23.20;39.20;;;;;;4975151;28;19933;-82
2022/03/05 01:19:46;;;;;;;5.60;1.58;;;22.10;38.40;;;;;;4990662;28;20050;-82
2022/03/05 01:22:12;;;;;;;4.07;1.73;;;22.10;38.30;;;;;;4974259;28;20058;-81
2022/03/05 01:24:41;;;;;;;4.00;1.55;;;22.10;38.30;;;;;;5088764;23;20057;-82
2022/03/05 01:27:09;;;;;;;4.10;1.70;;;22.10;38.30;;;;;;4955116;28;20049;-82
2022/03/05 01:29:35;;;;;;;4.57;1.88;;;22.40;38.50;;;;;;4954605;28;20101;-81
2022/03/05 01:32:06;;;;;;;4.43;1.67;;;22.10;38.40;;;;;;4939701;28;20090;-81
2022/03/05 01:34:32;;;;;;;4.15;1.70;;;22.10;38.40;;;;;;4954903;28;20050;-81
2022/03/05 01:36:58;;;;;;;3.00;1.20;;;22.50;38.50;;;;;;4954423;28;20066;-80
2022/03/05 01:39:25;;;;;;;3.78;1.73;;;22.00;38.30;;;;;;4955247;28;20582;-81
2022/03/05 01:41:55;;;;;;;3.60;1.60;;;22.00;38.30;;;;;;4938101;28;20101;-80
2022/03/05 01:44:24;;;;;;;3.85;1.60;;;22.30;38.50;;;;;;4939707;28;20051;-82
2022/03/05 01:47:00;;;;;;;4.13;1.67;;;22.00;39.10;;;;;;4955268;28;20385;-82
2022/03/05 01:54:10;;;;;;;4.47;1.42;;;21.50;38.10;;;;;;4972213;28;20508;-82
2022/03/05 01:56:55;;;;;;;3.60;1.52;;;22.00;38.40;;;;;;4892933;29;20053;-82
2022/03/05 01:59:36;;;;;;;4.18;1.50;;;22.00;38.90;;;;;;4877675;29;20053;-81
2022/03/05 02:02:02;;;;;;;4.28;1.50;;;22.00;38.30;;;;;;4859615;29;20525;-82
2022/03/05 02:04:28;;;;;;;4.22;1.70;;;22.00;38.50;;;;;;4876451;29;20071;-82
2022/03/05 02:06:59;;;;;;;4.25;1.60;;;22.00;38.80;;;;;;4877475;29;20064;-82
2022/03/05 02:09:58;;;;;;;4.88;1.33;;;22.90;38.90;;;;;;4862468;29;20036;-82
2022/03/05 02:13:01;;;;;;;4.07;1.40;;;21.80;38.20;;;;;;4877767;29;20051;-81
2022/03/05 02:15:26;;;;;;;;;;;21.10;37.80;;;;;;4878176;29;20053;-82
2022/03/05 02:17:55;;;;;;;3.78;1.35;;;22.00;38.30;;;;;;4892625;29;19927;-82
2022/03/05 02:20:28;;;;;;;2.53;1.35;;;22.00;38.30;;;;;;4901349;28;20078;-82
2022/03/05 02:25:29;;;;;;;3.55;1.27;;;21.90;38.20;;;;;;4988784;28;20058;-83
2022/03/05 02:30:48;;;;;;;3.70;1.20;;;21.90;38.30;;;;;;5600645;22;20105;-81
2022/03/05 02:33:14;;;;;;;3.22;1.58;;;22.00;38.30;;;;;;4973022;28;20039;-81
2022/03/05 02:35:40;;;;;;;3.60;1.60;;;23.50;39.10;;;;;;4957828;28;20179;-81
2022/03/05 02:38:14;;;;;;;3.92;1.35;;;21.90;38.30;;;;;;4973085;28;20058;-82
2022/03/05 02:40:40;;;;;;;3.75;1.55;;;21.90;38.40;;;;;;4974313;28;20054;-81
2022/03/05 02:43:08;;;;;;;3.65;1.50;;;21.90;38.40;;;;;;4990892;28;20054;-82
2022/03/05 02:45:39;;;;;;;2.65;1.20;;;21.90;38.40;;;;;;4972899;28;20448;-81
2022/03/05 02:48:25;;;;;;;3.75;1.50;;;21.90;38.40;;;;;;4954431;28;20052;-81
2022/03/05 02:51:17;;;;;;;3.25;1.15;;;21.90;38.40;;;;;;4972458;28;20101;-81
2022/03/05 02:53:45;;;;;;;2.10;1.10;;;22.60;38.70;;;;;;4970586;28;20072;-81
2022/03/05 02:56:11;;;;;;;4.82;1.60;;;21.90;38.30;;;;;;4957882;28;20042;-81
2022/03/05 02:58:40;;;;;;;3.35;1.27;;;21.80;38.30;;;;;;4973288;28;20050;-81
2022/03/05 03:01:17;;;;;;;3.42;1.20;;;21.80;38.30;;;;;;4972680;28;20050;-82
2022/03/05 03:03:43;;;;;;;4.43;1.42;;;21.90;38.30;;;;;;4990859;28;20070;-81
2022/03/05 03:22:46;;;;;;;3.15;1.40;;;21.80;38.30;;;;;;5952496;22;20057;-81
2022/03/05 03:25:15;;;;;;;3.60;1.30;;;21.90;38.40;;;;;;4976489;28;20054;-81
2022/03/05 03:27:41;;;;;;;2.63;0.95;;;21.80;38.40;;;;;;4975975;28;20050;-81
2022/03/05 03:33:08;;;;;;;3.45;1.58;;;21.80;38.40;;;;;;4992508;28;20287;-82
2022/03/05 03:36:01;;;;;;;2.70;1.00;;;21.20;38.00;;;;;;4975699;28;20073;-81
2022/03/05 03:39:16;;;;;;;3.15;1.30;;;20.10;37.80;;;;;;4950942;28;20052;-81
2022/03/05 03:45:30;;;;;;;2.70;1.33;;;21.60;38.20;;;;;;5213972;22;20145;-81
2022/03/05 03:50:31;;;;;;;2.75;0.90;;;21.80;38.30;;;;;;5484740;22;20062;-81
2022/03/05 03:53:49;;;;;;;;;;;;;;;;;;;;;
2022/03/05 03:56:52;;;;;;;2.17;1.00;;;21.00;37.90;;;;;;4938787;28;20078;-81
2022/03/05 03:59:58;;;;;;;2.58;1.10;;;21.80;38.30;;;;;;4976348;28;20042;-81
2022/03/05 04:03:12;;;;;;;2.50;1.02;;;21.30;38.10;;;;;;4976160;28;20065;-81
2022/03/05 04:05:44;;;;;;;2.08;1.10;;;21.80;38.40;;;;;;4917013;29;20146;-82
2022/03/05 04:08:57;;;;;;;2.22;1.13;;;22.60;39.00;;;;;;4917462;29;20048;-81
2022/03/05 04:11:55;;;;;;;3.45;1.20;;;22.10;38.50;;;;;;4975528;28;20117;-81
2022/03/05 04:14:34;;;;;;;2.45;1.23;;;21.80;38.30;;;;;;4975878;28;20492;-81
2022/03/05 04:20:57;;;;;;;2.50;0.97;;;21.70;38.40;;;;;;4932770;29;20043;-82
2022/03/05 04:24:18;;;;;;;2.47;1.00;;;23.20;39.40;;;;;;4916918;29;20387;-81
2022/03/05 04:27:41;;;;;;;2.92;1.30;;;21.70;38.30;;;;;;4916673;29;20086;-81
2022/03/05 04:30:16;;;;;;;;;;;20.90;37.90;;;;;;4913266;29;20146;-81
2022/03/05 04:44:42;;;;;;;2.30;1.02;;;21.70;38.40;;;;;;4933201;28;20098;-81
2022/03/05 04:47:17;;;;;;;2.50;1.10;;;21.70;38.30;;;;;;4916402;29;20048;-80
2022/03/05 05:09:58;;;;;;;1.58;0.60;;;21.70;38.60;;;;;;4972781;28;20081;-83
2022/03/05 05:12:38;;;;;;;2.35;0.82;;;21.70;38.60;;;;;;4974540;28;20490;-81
2022/03/05 05:15:04;;;;;;;2.50;1.00;;;21.70;38.60;;;;;;4973825;28;20560;-81
2022/03/05 05:17:39;;;;;;;2.03;1.02;;;21.70;38.60;;;;;;4974171;28;20082;-81
2022/03/05 05:23:20;;;;;;;2.30;1.00;;;21.80;38.70;;;;;;5813337;22;20062;-81
2022/03/05 05:26:44;;;;;;;2.00;0.80;;;21.60;38.60;;;;;;4974171;28;20513;-81
2022/03/05 05:29:22;;;;;;;1.80;0.80;;;21.70;38.70;;;;;;4973483;28;20057;-81
2022/03/05 05:32:16;;;;;;;2.15;0.90;;;21.40;38.90;;;;;;4974350;28;20498;-81
2022/03/05 05:38:19;;;;;;;1.77;0.70;;;21.90;38.80;;;;;;5414269;22;20062;-81
2022/03/05 05:40:45;;;;;;;2.38;0.95;;;21.90;38.80;;;;;;4974222;28;20407;-82
2022/03/05 05:43:10;;;;;;;1.80;0.80;;;21.90;38.80;;;;;;4972680;28;20050;-81
2022/03/05 05:45:36;;;;;;;1.58;0.73;;;22.10;38.90;;;;;;4974024;28;20057;-81
2022/03/05 05:48:02;;;;;;;1.73;0.80;;;22.00;38.80;;;;;;4973571;28;20053;-81
2022/03/05 05:50:31;;;;;;;1.58;0.77;;;22.00;38.70;;;;;;4974116;28;20157;-82
2022/03/05 05:52:57;;;;;;;1.55;0.80;;;22.00;38.80;;;;;;4973817;28;20046;-82
2022/03/05 05:55:25;;;;;;;1.48;0.70;;;22.00;38.70;;;;;;4973637;28;20042;-81
2022/03/05 05:58:15;;;;;;;2.60;1.00;;;22.00;38.70;;;;;;4991515;28;20038;-82
2022/03/05 06:00:40;;;;;;;2.08;1.00;;;22.00;38.70;;;;;;4960837;28;20498;-82
2022/03/05 06:03:07;;;;;;;2.53;0.90;;;22.10;38.70;;;;;;4973184;28;20048;-81
2022/03/05 06:05:32;;;;;;;2.17;0.90;;;22.10;38.70;;;;;;4973803;28;20116;-81
2022/03/05 06:07:58;;;;;;;1.60;0.90;;;22.10;38.70;;;;;;4973983;28;20047;-81
2022/03/05 06:10:26;;;;;;;2.42;0.90;;;22.10;38.70;;;;;;4973049;28;20053;-81
2022/03/05 06:12:52;;;;;;;1.38;0.70;;;22.20;38.70;;;;;;4973762;28;20548;-82
2022/03/05 06:15:17;;;;;;;1.38;0.68;;;22.20;38.70;;;;;;4973662;28;20042;-81
2022/03/05 06:17:43;;;;;;;1.38;0.70;;;22.20;38.70;;;;;;4990362;28;20054;-81
2022/03/05 06:22:44;;;;;;;1.27;0.60;;;22.20;38.60;;;;;;5142193;23;20066;-81
2022/03/05 06:27:38;;;;;;;2.42;0.98;;;22.20;38.60;;;;;;4989518;28;20046;-80
2022/03/05 06:30:51;;;;;;;1.50;0.73;;;23.10;39.10;;;;;;4972244;28;20046;-83
2022/03/05 06:38:07;;;;;;;1.45;0.70;;;22.10;38.50;;;;;;4859685;29;20136;-82
2022/03/05 06:41:03;;;;;;;1.80;0.80;;;22.30;38.60;;;;;;4858528;29;20065;-82
2022/03/05 06:47:25;;;;;;;1.90;0.70;;;22.10;38.50;;;;;;4820266;29;20094;-80
2022/03/05 06:49:51;;;;;;;1.45;0.68;;;22.10;38.50;;;;;;4821436;29;20085;-80
2022/03/05 06:52:16;;;;;;;1.63;0.68;;;22.30;38.60;;;;;;4932321;28;20454;-80
2022/03/05 06:54:42;;;;;;;1.38;0.70;;;22.70;38.80;;;;;;4957127;28;20042;-80
2022/03/05 06:57:11;;;;;;;1.40;0.60;;;22.30;38.50;;;;;;4957614;28;20129;-80
2022/03/05 06:59:39;;;;;;;1.33;0.60;;;22.40;38.60;;;;;;4957311;28;20054;-80
2022/03/05 07:02:08;;;;;;;1.52;0.57;;;22.40;38.60;;;;;;4957449;28;20058;-80
2022/03/05 07:04:40;;;;;;;1.55;0.70;;;22.80;38.90;;;;;;4958007;28;20046;-80
2022/03/05 07:07:31;;;;;;;1.33;0.70;;;22.40;38.70;;;;;;4967589;28;20058;-80
2022/03/05 07:10:15;;;;;;;1.08;0.60;;;22.10;38.40;;;;;;4976650;28;20487;-81
2022/03/05 07:13:15;;;;;;;1.48;0.70;;;22.50;38.60;;;;;;4935935;28;20098;-81
2022/03/05 07:16:12;;;;;;;1.38;0.63;;;22.50;38.60;;;;;;4941573;28;20149;-82
2022/03/05 07:18:40;;;;;;;2.03;0.88;;;22.40;38.80;;;;;;4960310;28;20486;-83
2022/03/05 07:22:02;;;;;;;0.70;0.40;;;22.60;39.00;;;;;;4975936;28;20096;-85
2022/03/05 07:24:34;;;;;;;1.23;0.70;;;22.20;38.40;;;;;;4975631;28;20054;-83
2022/03/05 07:27:50;;;;;;;1.42;0.70;;;21.10;37.80;;;;;;4975085;28;20064;-85
2022/03/05 07:30:44;;;;;;;1.65;0.70;;;22.60;38.50;;;;;;4956689;28;20050;-87
2022/03/05 07:37:10;;;;;;;1.67;0.65;;;22.00;38.30;;;;;;4973875;28;20058;-86
2022/03/05 07:40:19;;;;;;;2.17;0.80;;;22.30;38.90;;;;;;4957234;28;20430;-86
2022/03/05 07:45:23;;;;;;;1.23;0.65;;;22.50;38.40;;;;;;4999321;23;20063;-84
2022/03/05 07:47:48;;;;;;;1.60;0.80;;;22.50;38.40;;;;;;4974601;28;20454;-84
2022/03/05 07:53:22;;;;;;;2.47;0.80;;;23.10;38.80;;;;;;4955075;28;20468;-84
2022/03/05 07:59:37;;;;;;;2.03;0.77;;;22.50;38.40;;;;;;4984929;28;20450;-85
2022/03/05 08:02:03;;;;;;;1.92;0.60;;;23.90;39.40;;;;;;4956187;28;20039;-84
2022/03/05 08:04:29;;;;;;;2.20;0.70;;;23.80;39.20;;;;;;4955894;28;20039;-85
2022/03/05 08:06:54;;;;;;;3.03;0.70;;;22.30;38.50;;;;;;4956735;28;20828;-84
2022/03/05 08:09:36;;;;;;;1.25;0.70;;;23.60;39.20;;;;;;4957742;28;20073;-84
2022/03/05 08:22:13;;;;;;;2.15;0.88;;;22.40;38.30;;;;;;5516070;23;20066;-86
2022/03/05 08:28:43;;;;;;;1.52;0.63;;;22.20;38.10;;;;;;4986457;28;20041;-85
2022/03/05 08:41:43;;;;;;;2.47;0.80;;;22.10;38.20;;;;;;4973415;28;20117;-82
2022/03/05 08:48:08;;;;;;;3.22;1.00;;;21.50;37.90;;;;;;4973207;28;20448;-76
2022/03/05 08:53:41;;;;;;;16.35;1.73;;;22.40;38.20;;;;;;5166124;22;20112;-81
2022/03/05 09:42:16;;;;;;;1.90;0.70;;;22.60;38.20;;;;;;4982157;28;20110;-86
2022/03/05 09:46:28;;;;;;;;;;;;;;;;;;;;;
2022/03/05 10:22:08;;;;;;;5.00;2.72;;;21.90;36.50;;;;;;4971328;28;20491;-83
2022/03/05 10:38:25;;;;;;;6.13;2.95;;;22.00;36.70;;;;;;5566748;23;20529;-87
2022/03/05 11:26:37;;;;;;;5.68;3.22;;;22.00;35.80;;;;;;4904954;29;20078;-83
2022/03/05 11:29:03;;;;;;;6.47;3.83;;;22.70;36.40;;;;;;4881691;29;20053;-85
2022/03/05 11:31:47;;;;;;;4.97;3.03;;;20.60;35.40;;;;;;4892653;29;20056;-85
2022/03/05 11:56:39;;;;;;;5.95;3.47;;;22.60;35.90;;;;;;4987708;28;20397;-84
2022/03/05 11:59:38;;;;;;;6.47;4.32;;;23.70;36.80;;;;;;4948085;28;20742;-84
2022/03/05 12:10:03;;;;;;;6.30;3.70;;;21.80;35.30;;;;;;4931687;29;20137;-84
2022/03/05 12:31:51;;;;;;;8.20;5.18;;;22.80;35.40;;;;;;4897666;29;20460;-84
2022/03/05 12:35:22;;;;;;;;;;;;;;;;;;;;;
2022/03/05 12:38:38;;;;;;;5.63;3.70;;;22.20;35.10;;;;;;4871265;29;20048;-84
2022/03/05 13:15:48;;;;;;;6.38;3.47;;;22.50;34.90;;;;;;5426960;23;20073;-83
2022/03/05 13:19:05;;;;;;;5.72;3.10;;;22.40;34.90;;;;;;4914676;29;20602;-83
2022/03/05 13:22:20;;;;;;;6.10;3.40;;;22.90;35.50;;;;;;4915272;29;20055;-83
2022/03/05 13:28:38;;;;;;;7.00;3.40;;;22.40;35.20;;;;;;4867307;29;20532;-83
2022/03/05 13:38:40;;;;;;;7.00;4.47;;;22.90;35.20;;;;;;4874798;29;20079;-84
2022/03/05 13:44:48;;;;;;;5.28;3.22;;;23.10;35.60;;;;;;4848190;29;20068;-84
2022/03/05 13:47:52;;;;;;;6.65;3.95;;;21.70;35.30;;;;;;5213845;23;20061;-85
2022/03/05 14:04:08;;;;;;;4.63;2.63;;;22.80;35.80;;;;;;4895208;29;20092;-83
2022/03/05 14:07:15;;;;;;;5.43;3.17;;;22.30;35.50;;;;;;4895152;29;20048;-83
2022/03/05 14:09:47;;;;;;;5.53;2.95;;;23.00;36.00;;;;;;4887780;29;20067;-86
2022/03/05 14:12:26;;;;;;;8.00;3.88;;;24.30;36.90;;;;;;4895465;29;20060;-82
2022/03/05 14:14:56;;;;;;;6.18;3.88;;;24.10;36.30;;;;;;4894787;29;20516;-82
2022/03/05 14:17:46;;;;;;;6.53;4.07;;;23.10;35.70;;;;;;4894110;29;20127;-83
2022/03/05 14:20:28;;;;;;;6.82;4.05;;;23.30;35.60;;;;;;4895486;29;20064;-83
2022/03/05 14:23:04;;;;;;;5.70;4.00;;;22.70;35.70;;;;;;4894508;29;20052;-83
2022/03/05 14:25:45;;;;;;;5.53;3.60;;;23.30;36.10;;;;;;4882412;29;20060;-84
2022/03/05 14:28:18;;;;;;;6.03;4.05;;;23.20;35.90;;;;;;4894962;29;20052;-83
2022/03/05 14:30:53;;;;;;;7.85;4.32;;;23.00;35.80;;;;;;4895051;29;20052;-82
2022/03/05 14:33:27;;;;;;;7.18;4.07;;;23.30;36.40;;;;;;4939887;28;20065;-87
2022/03/05 14:35:59;;;;;;;8.40;4.80;;;23.00;36.00;;;;;;4991031;28;20038;-80
2022/03/05 14:38:33;;;;;;;8.48;4.10;;;23.40;34.80;;;;;;4961686;28;20055;-81
2022/03/05 14:41:17;;;;;;;7.60;5.72;;;23.20;35.70;;;;;;4954019;28;20054;-82
2022/03/05 14:44:01;;;;;;;8.10;5.20;;;24.70;35.80;;;;;;4953291;28;20055;-83
2022/03/05 14:46:52;;;;;;;7.57;4.90;;;22.80;34.60;;;;;;4971441;28;20483;-82
2022/03/05 14:49:30;;;;;;;8.18;4.80;;;23.20;35.00;;;;;;4954155;28;20035;-84
2022/03/05 14:51:56;;;;;;;9.05;5.22;;;23.10;34.90;;;;;;4959673;28;20483;-81
2022/03/05 14:54:22;;;;;;;7.57;4.47;;;24.60;35.90;;;;;;4963760;28;20058;-82
2022/03/05 14:57:26;;;;;;;9.10;4.40;;;24.20;36.10;;;;;;4965465;28;20046;-86
2022/03/05 14:59:51;;;;;;;9.45;4.38;;;22.80;35.50;;;;;;4894182;29;20063;-83
2022/03/05 15:03:19;;;;;;;11.25;4.40;;;23.10;35.70;;;;;;4893765;29;20052;-88
2022/03/05 15:06:50;;;;;;;6.03;3.65;;;22.20;35.30;;;;;;4911420;29;20052;-85
2022/03/05 15:10:16;;;;;;;9.38;3.83;;;22.80;36.00;;;;;;4876750;29;20136;-84
2022/03/05 15:13:08;;;;;;;6.95;3.67;;;22.60;35.80;;;;;;4875503;29;20060;-85
2022/03/05 15:16:16;;;;;;;8.23;4.28;;;23.20;36.80;;;;;;4908488;29;20537;-85
2022/03/05 15:18:42;;;;;;;8.75;4.13;;;23.30;36.10;;;;;;4897645;29;20056;-84
2022/03/05 15:21:26;;;;;;;6.95;3.90;;;23.30;36.20;;;;;;4898555;29;20488;-84
2022/03/05 15:24:01;;;;;;;7.30;4.25;;;22.20;35.30;;;;;;4898550;29;20052;-84
2022/03/05 15:26:42;;;;;;;5.97;3.58;;;23.30;36.10;;;;;;4897455;29;20125;-84
2022/03/05 15:29:26;;;;;;;5.88;3.85;;;23.30;36.10;;;;;;4898024;29;20056;-84
2022/03/05 15:32:01;;;;;;;7.15;3.72;;;22.40;35.40;;;;;;4897634;29;20143;-84
2022/03/05 15:34:42;;;;;;;6.43;3.65;;;22.50;36.00;;;;;;4961131;28;20516;-85
2022/03/05 15:37:11;;;;;;;5.23;2.90;;;24.70;37.30;;;;;;4994084;28;20050;-84
2022/03/05 15:39:40;;;;;;;8.40;4.57;;;23.40;36.00;;;;;;4980823;28;20346;-85
2022/03/05 15:42:11;;;;;;;6.22;3.80;;;23.50;35.90;;;;;;4975080;28;20390;-85
2022/03/05 15:45:01;;;;;;;5.20;3.40;;;23.50;35.70;;;;;;4956241;28;20054;-85
2022/03/05 15:47:36;;;;;;;5.32;3.10;;;23.50;36.80;;;;;;4965351;28;20050;-85
2022/03/05 15:50:09;;;;;;;5.60;3.50;;;22.50;35.40;;;;;;4967337;28;20444;-84
2022/03/05 15:52:38;;;;;;;6.72;3.65;;;23.50;36.10;;;;;;4957869;28;20145;-84
2022/03/05 15:55:04;;;;;;;5.40;3.40;;;22.90;36.00;;;;;;4955573;28;20057;-84
2022/03/05 15:57:29;;;;;;;5.78;3.55;;;23.60;35.90;;;;;;4965848;28;20054;-84
2022/03/05 16:00:36;;;;;;;5.05;3.45;;;24.70;36.30;;;;;;4957521;28;20049;-84
2022/03/05 16:04:08;;;;;;;7.97;3.97;;;23.60;35.50;;;;;;4955825;28;20058;-85
2022/03/05 16:07:34;;;;;;;7.90;4.30;;;22.80;34.90;;;;;;4953410;28;20078;-82
2022/03/05 16:10:04;;;;;;;7.05;4.68;;;22.90;34.70;;;;;;4936819;29;20085;-83
2022/03/05 16:12:30;;;;;;;5.78;4.18;;;23.50;34.90;;;;;;4940079;28;20039;-82
2022/03/05 16:15:08;;;;;;;5.82;3.67;;;23.50;35.80;;;;;;4945361;29;20554;-84
2022/03/05 17:20:57;;;;;;;7.47;4.95;;;22.20;33.70;;;;;;4991925;28;20048;-83
2022/03/05 17:36:25;;;;;;;9.55;5.22;;;23.10;34.00;;;;;;4974046;28;20054;-84
2022/03/05 17:58:40;;;;;;;9.07;5.57;;;22.90;33.80;;;;;;5125248;23;20058;-81
2022/03/05 18:07:31;;;;;;;8.50;5.63;;;22.80;33.40;;;;;;5628776;23;20030;-87
2022/03/05 18:43:49;;;;;;;8.00;5.00;;;21.90;36.60;;;;;;5433321;23;20165;-77
2022/03/05 20:32:23;;;;;;;4.97;2.15;;;22.20;37.20;;;;;;4857467;29;20060;-81
2022/03/05 20:38:56;;;;;;;3.92;1.95;;;21.80;37.10;;;;;;4942190;23;20126;-82
2022/03/05 20:41:22;;;;;;;4.22;1.92;;;22.20;37.30;;;;;;4936050;29;20612;-82
2022/03/05 20:44:55;;;;;;;;;;;;;;;;;;;;;
2022/03/05 20:55:12;;;;;;;3.67;1.88;;;22.20;37.40;;;;;;4832429;29;20815;-82
2022/03/05 21:01:50;;;;;;;3.67;1.90;;;22.20;37.50;;;;;;4838329;29;20121;-83
2022/03/05 21:04:55;;;;;;;3.75;1.75;;;22.10;37.50;;;;;;4800168;29;20103;-83
2022/03/05 21:07:45;;;;;;;4.13;1.65;;;23.30;38.40;;;;;;4756473;29;20063;-82
2022/03/05 21:30:07;;;;;;;3.30;1.77;;;21.80;37.50;;;;;;4946479;29;20498;-82
2022/03/05 21:36:28;;;;;;;4.22;1.85;;;21.90;37.70;;;;;;4950432;29;20554;-83
2022/03/05 21:39:34;;;;;;;4.25;1.98;;;20.30;37.00;;;;;;4935325;29;20414;-83
2022/03/05 21:42:15;;;;;;;3.65;1.80;;;20.80;37.10;;;;;;4935137;29;20657;-82
2022/03/05 21:45:09;;;;;;;3.25;1.75;;;22.30;38.10;;;;;;4923758;29;20050;-82
2022/03/05 21:48:57;;;;;;;4.07;1.83;;;21.10;37.30;;;;;;4916581;29;20059;-82
2022/03/05 21:55:02;;;;;;;3.08;1.77;;;21.70;38.40;;;;;;5797448;23;20062;-82
2022/03/05 22:01:49;;;;;;;3.15;1.67;;;22.00;37.80;;;;;;4941681;29;20102;-83
2022/03/05 22:04:17;;;;;;;3.67;1.85;;;21.90;37.80;;;;;;4935403;29;20051;-84
2022/03/05 22:07:19;;;;;;;3.78;1.90;;;22.70;38.50;;;;;;4934462;29;20052;-82
2022/03/05 22:10:26;;;;;;;5.05;2.47;;;21.90;37.90;;;;;;4934246;29;20522;-82
2022/03/05 22:12:55;;;;;;;4.05;2.10;;;21.50;37.80;;;;;;4925682;29;20047;-83
2022/03/05 22:15:58;;;;;;;5.93;2.60;;;22.80;38.60;;;;;;4916309;29;20059;-82
2022/03/05 22:18:30;;;;;;;4.55;2.22;;;20.90;37.40;;;;;;4927135;29;20476;-81
2022/03/05 22:21:09;;;;;;;4.40;1.88;;;21.50;38.10;;;;;;4924203;29;20142;-83
2022/03/05 22:23:50;;;;;;;3.40;1.52;;;22.70;38.60;;;;;;4924037;29;20568;-82
2022/03/05 22:26:25;;;;;;;3.22;1.85;;;22.80;38.60;;;;;;4938026;29;20370;-82
2022/03/05 22:29:06;;;;;;;3.20;1.77;;;21.80;38.20;;;;;;4937953;29;20055;-81
2022/03/05 22:31:32;;;;;;;3.42;2.00;;;21.80;38.30;;;;;;4922524;29;20043;-82
2022/03/05 22:34:03;;;;;;;3.35;1.70;;;21.80;38.20;;;;;;4922282;29;20049;-82
2022/03/05 22:36:29;;;;;;;5.55;2.25;;;22.90;38.80;;;;;;4956721;29;20043;-83
2022/03/05 22:38:54;;;;;;;4.10;2.13;;;22.20;38.30;;;;;;4938470;29;20404;-81
2022/03/05 22:41:35;;;;;;;4.43;2.00;;;21.80;38.10;;;;;;4938298;29;20055;-82
2022/03/05 22:44:10;;;;;;;4.97;2.08;;;21.70;38.40;;;;;;4923163;29;20086;-82
2022/03/05 22:46:48;;;;;;;3.45;1.90;;;20.40;38.30;;;;;;4938908;29;20598;-83
2022/03/05 22:49:29;;;;;;;3.28;1.95;;;21.80;38.50;;;;;;4937773;29;20440;-83
2022/03/05 22:51:57;;;;;;;3.63;1.77;;;21.90;38.40;;;;;;4939135;29;20119;-81
2022/03/05 22:54:32;;;;;;;4.03;1.80;;;22.00;38.40;;;;;;4922659;29;20055;-83
2022/03/05 22:57:13;;;;;;;4.25;1.98;;;21.60;38.40;;;;;;4921962;29;20074;-83
2022/03/05 22:59:39;;;;;;;3.08;1.63;;;21.60;38.40;;;;;;4938425;29;20054;-83
2022/03/05 23:05:01;;;;;;;4.20;1.70;;;21.60;38.10;;;;;;4921675;29;20047;-82
2022/03/05 23:10:50;;;;;;;4.15;1.70;;;20.20;37.40;;;;;;4893988;29;20055;-82
2022/03/05 23:13:31;;;;;;;3.58;1.60;;;19.50;37.30;;;;;;4880471;29;20085;-82
2022/03/05 23:16:01;;;;;;;3.40;2.00;;;22.70;39.20;;;;;;4880021;29;20059;-82
2022/03/05 23:18:33;;;;;;;4.07;1.60;;;21.50;38.80;;;;;;4865296;29;20426;-82
2022/03/05 23:20:58;;;;;;;4.50;1.95;;;22.80;40.00;;;;;;4850302;29;20091;-82
2022/03/05 23:24:05;;;;;;;5.38;1.90;;;22.40;38.80;;;;;;4937513;29;20048;-84
2022/03/05 23:26:49;;;;;;;4.25;1.90;;;22.10;38.50;;;;;;4938128;29;20127;-82
2022/03/05 23:29:24;;;;;;;5.03;2.03;;;20.50;37.70;;;;;;4938314;29;20051;-82
2022/03/05 23:32:02;;;;;;;3.38;1.52;;;21.80;39.30;;;;;;4937261;29;20047;-82
2022/03/05 23:34:36;;;;;;;5.70;1.90;;;21.60;38.60;;;;;;4938231;29;20384;-82
2022/03/05 23:37:13;;;;;;;3.97;1.85;;;22.50;38.90;;;;;;4937855;29;20043;-82
2022/03/05 23:39:53;;;;;;;6.20;2.00;;;22.80;39.10;;;;;;4938464;29;20070;-82
2022/03/05 23:42:28;;;;;;;5.05;1.98;;;21.50;39.50;;;;;;4937939;29;20047;-82
2022/03/05 23:45:12;;;;;;;2.97;1.92;;;23.10;40.20;;;;;;4937353;29;20043;-82
2022/03/05 23:47:44;;;;;;;3.65;1.67;;;21.40;38.90;;;;;;4938268;29;20043;-82
2022/03/05 23:50:10;;;;;;;3.88;1.80;;;21.50;39.20;;;;;;4937936;29;20053;-82
2022/03/05 23:52:57;;;;;;;3.42;2.00;;;22.60;39.30;;;;;;4936959;29;20481;-82
2022/03/05 23:55:23;;;;;;;4.30;2.25;;;21.70;38.80;;;;;;4959096;23;20060;-82
2022/03/05 23:57:51;;;;;;;4.43;1.80;;;21.40;38.30;;;;;;4936240;29;20110;-82
